Anchor Point, AK (99556)

11:38 AM AKST on December 22, 2014 (GMT -0900)
KAKHOMER5 | Change Station
CLOSE
Current Station
Personal Weather Station
Location: Homer, AK
Elevation: 1152 ft
Nearby Weather Stations

Elev 1152 ft 59.67 °N, 151.49 °W | Updated 17 seconds ago

Light Snow
Light Snow Mist
30.2 °F
Feels Like 30 °F
N
0.0
Wind Variable Wind from WNW
Gusts 0.0 mph

Today
High -- | Low -- °F
--% Chance of Precip.
Yesterday
High -- | Low -- °F
Precip. -- in
10:07 AM 4:04 PM
New Moon, 1% visible
Pressure 29.73 in
Visibility 3.0 miles
Clouds Few 800 ft
Mostly Cloudy 1300 ft
Mostly Cloudy 7000 ft
Windchill 30 °F
Dew Point 29 °F
Humidity 95%
Rainfall 0.00 in
Snow Depth Not available.
UV 0 out of 12
Pollen Not available.
Air Quality Not available.
Flu Activity Not available.
SPECI PAHO 222033Z 00000KT 3SM -SN BR FEW008 BKN013 BKN070 00/M01 A2973 RMK AO2 P0005 T00001011

More Conditions Fewer Conditions

Pressure 29.73 in
Visibility 3.0 miles
Clouds Few 800 ft
Mostly Cloudy 1300 ft
Mostly Cloudy 7000 ft
Windchill 30 °F
Dew Point 29 °F
Humidity 95%
Rainfall 0.00 in
Snow Depth Not available.
UV 0 out of 12
Pollen Not available.
Air Quality Not available.
Flu Activity Not available.
SPECI PAHO 222033Z 00000KT 3SM -SN BR FEW008 BKN013 BKN070 00/M01 A2973 RMK AO2 P0005 T00001011

More Conditions Fewer Conditions

10-Day Weather Forecast

Almanac

Astronomy

Dec. 22, 2014 Rise Set
Actual Time
Civil Twilight
Nautical Twilight
Astronomical Twilight
Moon
Length of Visible Light
Length of Day
Tomorrow will be .
, % of the Moon is Illuminated

Today's Extremes

State Highs State Lows

Community

WunderPhotos

Upload Photos

1,779,680 photos uploaded!

WunderBlogs® & News

Nearby

Air Quality

  Air Quality AQ Index Pollutant
Not available.

Snow Depth

Station Depth Elevation

Earthquake Activity

City Distance Mag. Time & Date
Minimum magnitude displayed is 2.5.

Coastal Water Temperatures

Place Temperature

Nearby Weather Stations